Historyczne dane pomiarowe

Dodano dane terminowe – wersja testowa.

Dane z okresu 1951-2019

Wersja bazy: 1.34 [2019-03-16, lista zmian], aktualizacja planowana na 2019-04-15

Dane meteo z obszaru Polski uzyskane na podstawie danych udostępnionych przez Instytut Meteorologii i Gospodarki Wodnej – Państwowy Instytut Badawczy.

 

Wybierz Datę:    

       

TemperaturaWilgotnośćWiatrCiśnienieOpadyŚniegCzas trwania zjawisk
 Stacja t tx tn tng RH VA  wxwx mslp ppp RRR   cm mm wxwxwxwxwxwxwx
1965-07-16 14.9 19.8 13.5--- 8.0 2.3---- 3.6------------
1965-07-17 13.6 16.3 12.3--- 6.0 1.7---- 0.0------------
1965-07-18 14.6 19.6 9.5--- 0.3 2.0---- 0.0------------
1965-07-19 17.2 22.4 8.0--- 1.3 2.3---- 0.0------------
1965-07-20 18.3 23.5 11.5--- 0.3 2.0---- 0.0------------
1965-07-21 19.7 23.4 13.6--- 3.3 4.3---- 7.6------------
1965-07-22 17.0 20.9 15.8--- 7.0 3.0---- 4.2------------
1965-07-23 15.8 21.1 12.7--- 7.7 2.3---- 9.6------------
1965-07-24 13.2 19.1 11.4--- 8.0 3.3---- 6.1------------
1965-07-25 14.4 20.7 10.3--- 4.0 4.7---- 6.3------------
1965-07-26 13.0 16.6 10.9--- 8.0 3.0---- 8.7------------
1965-07-27 11.9 14.9 10.2--- 7.0 5.3---- 1.1------------
1965-07-28 12.3 15.0 9.5--- 7.7 5.0---- 1.5------------
1965-07-29 13.6 15.6 11.8--- 8.0 3.7---- 7.9------------
1965-07-30 14.1 17.4 12.8--- 6.7 3.3---- 7.6------------
1965-07-31 12.2 15.7 10.6--- 5.3 5.7---- 0.0------------
1965-08-01 12.6 16.6 7.3--- 4.7 3.7---- 0.0------------
1965-08-02 11.5 18.5 6.8--- 3.7 1.7---- 2.5------------
1965-08-03 13.0 18.6 6.7--- 2.0 2.3---- 0.2------------
1965-08-04 13.6 19.4 10.4--- 5.3 2.0---- 13.6------------
1965-08-05 13.1 18.0 10.4--- 5.3 3.0---- 0.1------------
1965-08-06 18.2 25.9 11.8--- 3.7 3.0---- 0.6------------
1965-08-07 16.2 22.1 13.3--- 7.7 2.3---- 2.2------------
1965-08-08 13.7 15.7 12.7--- 7.3 1.7---- 19.1------------
1965-08-09 11.5 16.5 9.2--- 4.7 1.7---- 0.0------------
1965-08-10 12.1 16.3 6.2--- 3.0 3.3---- 0.0------------
1965-08-11 12.3 16.9 7.4--- 5.3 4.0---- 0.0------------
1965-08-12 10.9 16.3 8.5--- 5.0 2.3---- 3.4------------
1965-08-13 11.6 17.1 5.0--- 4.0 2.3---- 0.0------------
1965-08-14 11.8 13.4 7.5--- 7.7 2.0---- 4.9------------
227.3 ms

 

Źródłem pochodzenia danych jest Instytut Meteorologii i Gospodarki Wodnej – Państwowy Instytut Badawczy. Dane Instytutu Meteorologii i Gospodarki Wodnej – Państwowego Instytutu Badawczego zostały przetworzone.

Dane źródłowe można odnaleźć na stronie https://dane.imgw.pl